Startpagina
METAR-TAF:

METAR-TAF

Vliegvelden :

Vientiane, Laos

breedte: 17-57N, lengte: 102-34E, hoogte: 171 m

Actueel weer

Dit bericht is 4 uur en het 15 minuten geleden gemaakt, om 16:00 UTC
Wind 2 kt uit het zuidzuidoosten
Temperatuur 25°C
Vochtigheid 100%
Druk 1012 hPa
Zicht: 3000 m
nevel

METAR: VLVT 151600Z 16002KT 3000 BR NSC 25/25 Q1012 NOSIG

Tijdstip: 03:15 (20:15 UTC)

Verwachting

Dit bericht is 3 uur en het 15 minuten geleden gemaakt, om 17:00 UTC
Verwachting geldig van 15 om 18 UTC tot 16 om 18 UTC
Wind 4 kt uit het zuidwesten
Zicht: 3000 m
Weinig wolken op 5000 ft
Weinig wolken op 10000 ft
nevel
Tijdelijke
van 16 om 00 UTC tot 16 om 05 UTC
Zicht: 5000 m
Weinig wolken op 5000 ft
Verspreide wolken op 20000 ft
nevel

TAF: VLVT 151700Z 1518/1618 22004KT 3000 BR FEW050 FEW100 TEMPO 1600/1605 5000 BR FEW050 SCT200

Waarnemingen en weersverwachtingen van meer dan 4000 vliegvelden (METAR en TAF).

De beschikbare stations zijn de gele en rode punten op de kaart.

Ga met uw muis naar het station om de naam te zien.

Klik dan om waarnemingen en weersverwachtingen te zien.

kaart wijzigen: klik op de groene knoppen met een zwart kruis om in te zoomen, op de groene knop met een streepje om uit te zoomen of op de groene pijlen voor aangrenzende kaarten.


METAR-TAF: